createdAt,value
2023-02-05T00:00:28.695Z,100.00
2023-02-05T00:02:55.608Z,100.00
2023-02-05T00:05:22.534Z,100.00
2023-02-05T00:07:49.506Z,100.00
2023-02-05T00:10:17.266Z,100.00
2023-02-05T00:12:44.673Z,100.00
2023-02-05T00:15:11.716Z,100.00
2023-02-05T00:17:38.606Z,100.00
2023-02-05T00:20:06.783Z,100.00
2023-02-05T00:22:33.624Z,100.00
2023-02-05T00:25:00.519Z,100.00
2023-02-05T00:27:27.467Z,100.00
2023-02-05T00:29:54.373Z,100.00
2023-02-05T00:32:21.301Z,100.00
2023-02-05T00:34:48.250Z,100.00
2023-02-05T00:37:15.253Z,100.00
2023-02-05T00:39:42.725Z,100.00
2023-02-05T00:42:09.620Z,100.00
2023-02-05T00:44:36.562Z,100.00
2023-02-05T00:47:03.551Z,100.00
2023-02-05T00:49:30.518Z,100.00
2023-02-05T00:51:57.441Z,100.00
2023-02-05T00:54:24.397Z,100.00
2023-02-05T00:56:52.159Z,100.00
2023-02-05T00:59:19.055Z,100.00
2023-02-05T01:01:46.021Z,100.00
2023-02-05T01:04:13.090Z,100.00
2023-02-05T01:06:40.699Z,100.00
2023-02-05T01:09:07.781Z,100.00
2023-02-05T01:11:34.965Z,100.00
2023-02-05T01:14:01.949Z,100.00
2023-02-05T01:16:28.848Z,100.00
2023-02-05T01:18:56.872Z,100.00
2023-02-05T01:21:25.098Z,100.00
2023-02-05T01:23:52.357Z,100.00
2023-02-05T01:26:19.528Z,100.00
2023-02-05T01:28:47.188Z,100.00
2023-02-05T01:31:14.294Z,100.00
2023-02-05T01:33:41.231Z,100.00
2023-02-05T01:36:08.487Z,100.00
2023-02-05T01:38:35.432Z,100.00
2023-02-05T01:41:02.378Z,100.00
2023-02-05T01:43:29.263Z,100.00
2023-02-05T01:46:23.720Z,100.00
2023-02-05T01:48:55.113Z,100.00
2023-02-05T01:51:23.189Z,100.00
2023-02-05T01:53:50.756Z,100.00
2023-02-05T01:56:42.961Z,100.00
2023-02-05T01:59:16.320Z,100.00
2023-02-05T02:01:44.479Z,100.00
2023-02-05T02:04:15.411Z,100.00
2023-02-05T02:06:42.334Z,100.00
2023-02-05T02:09:09.618Z,100.00
2023-02-05T02:11:41.561Z,100.00
2023-02-05T02:14:10.141Z,100.00
2023-02-05T02:16:39.260Z,99.26
2023-02-05T02:19:16.273Z,100.00
2023-02-05T02:22:11.193Z,99.92
2023-02-05T02:24:43.268Z,98.67
2023-02-05T02:27:28.410Z,98.60
2023-02-05T02:30:03.372Z,99.00
2023-02-05T02:32:36.221Z,98.25
2023-02-05T02:35:14.054Z,97.45
2023-02-05T02:37:46.026Z,97.64
2023-02-05T02:40:18.349Z,96.63
2023-02-05T02:42:57.908Z,97.23
2023-02-05T02:45:29.373Z,98.51
2023-02-05T02:48:00.227Z,97.09
2023-02-05T02:50:35.999Z,98.40
2023-02-05T02:53:09.177Z,97.21
2023-02-05T02:55:43.710Z,98.04
2023-02-05T02:58:18.464Z,97.28
2023-02-05T03:00:46.777Z,97.65
2023-02-05T03:03:17.962Z,98.04
2023-02-05T03:05:49.014Z,97.77
2023-02-05T03:08:27.806Z,97.11
2023-02-05T03:11:04.960Z,97.46
2023-02-05T03:13:32.454Z,96.26
2023-02-05T03:16:02.557Z,96.05
2023-02-05T03:18:30.345Z,95.24
2023-02-05T03:21:02.954Z,95.91
2023-02-05T03:23:31.732Z,96.46
2023-02-05T03:25:58.795Z,95.27
2023-02-05T03:28:36.424Z,94.32
2023-02-05T03:31:14.240Z,94.66
2023-02-05T03:33:47.109Z,94.09
2023-02-05T03:36:30.058Z,94.18
2023-02-05T03:39:06.328Z,93.31
2023-02-05T03:42:17.354Z,94.14
2023-02-05T03:44:53.627Z,93.44
2023-02-05T03:47:27.769Z,93.48
2023-02-05T03:50:12.635Z,92.99
2023-02-05T03:52:47.829Z,92.16
2023-02-05T03:55:28.489Z,94.19
2023-02-05T03:57:59.320Z,93.50
2023-02-05T04:00:27.775Z,93.36
2023-02-05T04:02:55.787Z,94.13
2023-02-05T04:05:26.929Z,94.19
2023-02-05T04:07:56.083Z,93.36
2023-02-05T04:10:27.534Z,93.17
2023-02-05T04:12:55.640Z,94.44
2023-02-05T04:15:24.107Z,94.45
2023-02-05T04:17:54.482Z,93.41
2023-02-05T04:20:21.644Z,93.73
2023-02-05T04:22:48.765Z,94.73
2023-02-05T04:25:16.281Z,94.22
2023-02-05T04:27:43.854Z,93.84
2023-02-05T04:30:12.034Z,94.45
2023-02-05T04:32:43.036Z,93.95
2023-02-05T04:35:10.720Z,94.30
2023-02-05T04:37:37.717Z,93.28
2023-02-05T04:40:06.802Z,93.12
2023-02-05T04:42:33.687Z,93.19
2023-02-05T04:45:00.653Z,93.91
2023-02-05T04:47:27.565Z,94.16
2023-02-05T04:49:54.489Z,93.58
2023-02-05T04:52:21.392Z,93.49
2023-02-05T04:54:48.265Z,92.98
2023-02-05T04:57:15.075Z,93.35
2023-02-05T04:59:42.065Z,93.44
2023-02-05T05:02:09.140Z,92.54
2023-02-05T05:04:36.942Z,92.72
2023-02-05T05:07:03.827Z,92.49
2023-02-05T05:09:30.700Z,92.18
2023-02-05T05:11:57.568Z,92.93
2023-02-05T05:14:24.621Z,92.98
2023-02-05T05:16:51.557Z,93.10
2023-02-05T05:19:18.417Z,92.64
2023-02-05T05:21:45.454Z,92.12
2023-02-05T05:24:12.457Z,93.04
2023-02-05T05:26:43.830Z,92.69
2023-02-05T05:29:14.858Z,92.58
2023-02-05T05:31:42.782Z,92.27
2023-02-05T05:34:09.784Z,92.51
2023-02-05T05:36:36.711Z,92.61
2023-02-05T05:39:22.259Z,92.51
2023-02-05T05:42:07.711Z,92.83
2023-02-05T05:44:34.592Z,91.70
2023-02-05T05:47:01.450Z,92.13
2023-02-05T05:49:28.342Z,91.77
2023-02-05T05:51:55.428Z,91.76
2023-02-05T05:54:22.319Z,92.11
2023-02-05T05:56:49.816Z,90.87
2023-02-05T05:59:16.993Z,90.81
2023-02-05T06:01:43.970Z,90.90
2023-02-05T06:04:10.963Z,91.31
2023-02-05T06:06:38.269Z,91.30
2023-02-05T06:09:05.242Z,91.28
2023-02-05T06:11:32.119Z,90.06
2023-02-05T06:13:59.255Z,91.11
2023-02-05T06:16:26.236Z,90.32
2023-02-05T06:18:53.830Z,90.51
2023-02-05T06:21:20.740Z,90.72
2023-02-05T06:23:47.693Z,90.41
2023-02-05T06:26:14.969Z,89.96
2023-02-05T06:28:41.795Z,90.92
2023-02-05T06:31:08.706Z,90.49
2023-02-05T06:33:35.672Z,89.52
2023-02-05T06:36:02.643Z,89.71
2023-02-05T06:38:29.535Z,89.11
2023-02-05T06:40:56.521Z,88.72
2023-02-05T06:43:23.407Z,89.06
2023-02-05T06:45:50.323Z,88.71
2023-02-05T06:48:18.305Z,88.75
2023-02-05T06:50:45.245Z,88.32
2023-02-05T06:53:12.252Z,88.47
2023-02-05T06:55:39.517Z,87.54
2023-02-05T06:58:07.811Z,87.79
2023-02-05T07:00:35.842Z,88.37
2023-02-05T07:03:03.261Z,88.60
2023-02-05T07:05:30.396Z,87.50
2023-02-05T07:07:57.344Z,87.82
2023-02-05T07:10:24.346Z,87.87
2023-02-05T07:12:51.254Z,87.24
2023-02-05T07:15:18.247Z,87.06
2023-02-05T07:17:45.212Z,87.17
2023-02-05T07:20:12.093Z,87.54
2023-02-05T07:22:38.999Z,86.21
2023-02-05T07:25:06.229Z,84.81
2023-02-05T07:27:33.141Z,86.06
2023-02-05T07:30:00.355Z,85.87
2023-02-05T07:32:27.295Z,84.39
2023-02-05T07:34:54.185Z,83.83
2023-02-05T07:37:21.575Z,83.79
2023-02-05T07:39:48.712Z,83.46
2023-02-05T07:42:15.737Z,83.71
2023-02-05T07:44:49.784Z,82.69
2023-02-05T07:47:16.618Z,83.41
2023-02-05T07:49:43.596Z,82.40
2023-02-05T07:52:10.491Z,80.74
2023-02-05T07:54:37.501Z,79.46
2023-02-05T07:57:06.810Z,79.92
2023-02-05T07:59:34.046Z,80.01
2023-02-05T08:02:00.925Z,79.11
2023-02-05T08:04:27.843Z,78.04
2023-02-05T08:06:54.795Z,77.96
2023-02-05T08:09:21.729Z,77.12
2023-02-05T08:11:48.596Z,75.77
2023-02-05T08:14:15.514Z,74.83
2023-02-05T08:16:42.431Z,74.72
2023-02-05T08:19:15.368Z,71.97
2023-02-05T08:21:42.495Z,71.65
2023-02-05T08:24:09.567Z,72.10
2023-02-05T08:26:36.785Z,70.47
2023-02-05T08:29:04.058Z,68.41
2023-02-05T08:31:31.044Z,68.57
2023-02-05T08:34:00.200Z,66.46
2023-02-05T08:36:28.024Z,66.23
2023-02-05T08:38:55.312Z,64.26
2023-02-05T08:41:22.852Z,64.43
2023-02-05T08:43:50.921Z,63.75
2023-02-05T08:46:21.977Z,63.16
2023-02-05T08:48:49.682Z,62.37
2023-02-05T08:51:17.749Z,60.06
2023-02-05T08:53:44.701Z,57.57
2023-02-05T08:56:14.164Z,58.17
2023-02-05T08:58:41.755Z,56.25
2023-02-05T09:01:18.922Z,53.74
2023-02-05T09:03:46.113Z,51.05
2023-02-05T09:06:14.971Z,53.45
2023-02-05T09:08:42.143Z,53.14
2023-02-05T09:11:09.400Z,52.31
2023-02-05T09:13:36.779Z,54.76
2023-02-05T09:16:03.843Z,56.44
2023-02-05T09:18:31.148Z,54.26
2023-02-05T09:20:58.427Z,54.43
2023-02-05T09:23:25.334Z,55.13
2023-02-05T09:25:52.275Z,54.50
2023-02-05T09:28:19.243Z,55.81
2023-02-05T09:30:46.841Z,54.70
2023-02-05T09:33:14.670Z,53.51
2023-02-05T09:35:42.331Z,54.17
2023-02-05T09:38:12.970Z,56.81
2023-02-05T09:41:00.271Z,57.14
2023-02-05T09:43:50.289Z,54.62
2023-02-05T09:46:26.379Z,56.08
2023-02-05T09:49:31.553Z,57.36
2023-02-05T09:52:05.188Z,53.48
2023-02-05T09:54:38.382Z,54.12
2023-02-05T09:57:13.986Z,51.62
2023-02-05T09:59:44.399Z,52.85
2023-02-05T10:02:50.018Z,52.67
2023-02-05T10:05:17.855Z,53.04
2023-02-05T10:08:02.750Z,54.94
2023-02-05T10:10:44.057Z,52.82
2023-02-05T10:13:17.112Z,50.63
2023-02-05T10:16:20.870Z,49.50
2023-02-05T10:18:59.933Z,52.45
2023-02-05T10:21:32.698Z,49.44
2023-02-05T10:24:11.556Z,51.46
2023-02-05T10:26:54.152Z,48.76
2023-02-05T10:29:53.209Z,51.32
2023-02-05T10:32:40.512Z,47.42
2023-02-05T10:35:24.463Z,48.21
2023-02-05T10:37:54.281Z,49.26
2023-02-05T10:40:44.159Z,48.56
2023-02-05T10:43:23.034Z,47.81
2023-02-05T10:45:51.491Z,48.36
2023-02-05T10:48:42.733Z,49.35
2023-02-05T10:51:15.968Z,48.61
2023-02-05T10:53:43.816Z,46.56
2023-02-05T10:56:19.244Z,43.43
2023-02-05T10:58:55.383Z,45.11
2023-02-05T11:01:32.057Z,48.74
2023-02-05T11:04:06.845Z,49.04
2023-02-05T11:06:45.530Z,46.21
2023-02-05T11:09:33.403Z,45.48
2023-02-05T11:12:04.674Z,48.19
2023-02-05T11:14:35.455Z,47.17
2023-02-05T11:17:15.078Z,45.97
2023-02-05T11:19:51.579Z,47.08
2023-02-05T11:22:36.221Z,44.08
2023-02-05T11:25:16.025Z,46.07
2023-02-05T11:27:58.970Z,45.16
2023-02-05T11:30:50.372Z,44.80
2023-02-05T11:33:22.933Z,47.05
2023-02-05T11:36:15.483Z,45.61
2023-02-05T11:38:46.367Z,45.25
2023-02-05T11:41:26.081Z,49.04
2023-02-05T11:43:54.177Z,49.74
2023-02-05T11:46:24.253Z,49.40
2023-02-05T11:48:53.938Z,47.42
2023-02-05T11:51:36.013Z,49.17
2023-02-05T11:54:11.688Z,50.96
2023-02-05T11:56:38.666Z,51.52
2023-02-05T11:59:21.060Z,49.69
2023-02-05T12:01:48.223Z,45.85
2023-02-05T12:04:19.347Z,44.86
2023-02-05T12:07:15.345Z,43.82
2023-02-05T12:09:42.253Z,41.36
2023-02-05T12:12:29.753Z,40.06
2023-02-05T12:15:13.714Z,43.08
2023-02-05T12:17:42.303Z,43.33
2023-02-05T12:20:21.678Z,45.69
2023-02-05T12:23:07.014Z,45.60
2023-02-05T12:26:12.169Z,43.90
2023-02-05T12:29:00.245Z,44.56
2023-02-05T12:31:36.155Z,44.42
2023-02-05T12:34:33.818Z,44.50
2023-02-05T12:37:24.877Z,42.39
2023-02-05T12:40:05.022Z,42.02
2023-02-05T12:42:52.355Z,40.54
2023-02-05T12:45:52.028Z,43.23
2023-02-05T12:48:18.918Z,44.50
2023-02-05T12:50:57.788Z,42.84
2023-02-05T12:53:24.675Z,44.11
2023-02-05T12:55:51.918Z,45.69
2023-02-05T12:58:20.862Z,46.46
2023-02-05T13:00:52.583Z,47.16
2023-02-05T13:03:22.328Z,44.29
2023-02-05T13:06:07.371Z,44.33
2023-02-05T13:08:37.379Z,45.56
2023-02-05T13:11:04.351Z,46.16
2023-02-05T13:13:37.270Z,43.81
2023-02-05T13:16:12.509Z,43.75
2023-02-05T13:18:43.703Z,44.93
2023-02-05T13:21:34.745Z,45.63
2023-02-05T13:24:40.423Z,47.49
2023-02-05T13:27:51.899Z,51.23
2023-02-05T13:30:24.704Z,52.32
2023-02-05T13:32:57.405Z,54.08
2023-02-05T13:35:27.027Z,55.04
2023-02-05T13:38:10.964Z,55.26
2023-02-05T13:41:08.044Z,50.64
2023-02-05T13:44:00.832Z,46.74
2023-02-05T13:46:53.688Z,46.80
2023-02-05T13:49:32.899Z,47.75
2023-02-05T13:52:25.411Z,49.53
2023-02-05T13:55:10.701Z,51.85
2023-02-05T13:58:02.195Z,50.69
2023-02-05T14:00:29.885Z,50.85
2023-02-05T14:02:58.949Z,50.39
2023-02-05T14:05:33.738Z,53.39
2023-02-05T14:08:03.326Z,54.51
2023-02-05T14:10:40.957Z,56.32
2023-02-05T14:13:24.649Z,56.54
2023-02-05T14:15:57.644Z,58.68
2023-02-05T14:18:40.057Z,59.57
2023-02-05T14:21:31.533Z,61.12
2023-02-05T14:24:03.953Z,59.82
2023-02-05T14:26:53.875Z,60.18
2023-02-05T14:29:42.930Z,59.26
2023-02-05T14:32:34.625Z,59.54
2023-02-05T14:35:01.581Z,59.62
2023-02-05T14:37:36.500Z,59.79
2023-02-05T14:40:22.439Z,60.46
2023-02-05T14:42:53.394Z,59.68
2023-02-05T14:45:24.885Z,60.95
2023-02-05T14:47:52.036Z,60.36
2023-02-05T14:50:23.105Z,61.28
2023-02-05T14:52:58.706Z,61.27
2023-02-05T14:55:31.504Z,60.64
2023-02-05T14:58:09.551Z,61.42
2023-02-05T15:00:44.403Z,60.83
2023-02-05T15:03:17.848Z,59.59
2023-02-05T15:05:44.871Z,59.93
2023-02-05T15:08:40.378Z,59.12
2023-02-05T15:11:19.337Z,60.05
2023-02-05T15:14:20.411Z,60.44
2023-02-05T15:17:05.970Z,59.91
2023-02-05T15:19:50.019Z,60.09
2023-02-05T15:22:35.828Z,60.08
2023-02-05T15:25:04.364Z,59.98
2023-02-05T15:27:49.810Z,59.38
2023-02-05T15:30:26.810Z,59.11
2023-02-05T15:33:01.034Z,58.66
2023-02-05T15:35:30.988Z,58.44
2023-02-05T15:38:03.321Z,59.34
2023-02-05T15:40:34.808Z,59.63
2023-02-05T15:43:15.192Z,60.71
2023-02-05T15:45:45.251Z,60.66
2023-02-05T15:48:12.237Z,61.45
2023-02-05T15:51:03.301Z,62.65
2023-02-05T15:53:49.667Z,64.18
2023-02-05T15:56:29.646Z,64.21
2023-02-05T15:59:15.541Z,63.24
2023-02-05T16:01:47.997Z,63.23
2023-02-05T16:04:34.801Z,64.02
2023-02-05T16:07:02.655Z,63.10
2023-02-05T16:09:31.397Z,63.66
2023-02-05T16:12:11.306Z,61.80
2023-02-05T16:14:38.394Z,61.65
2023-02-05T16:17:21.913Z,61.55
2023-02-05T16:20:21.570Z,61.49
2023-02-05T16:23:00.298Z,60.83
2023-02-05T16:25:46.772Z,61.10
2023-02-05T16:28:20.935Z,61.57
2023-02-05T16:30:52.349Z,62.15
2023-02-05T16:33:25.213Z,61.64
2023-02-05T16:35:53.531Z,61.15
2023-02-05T16:38:23.415Z,61.03
2023-02-05T16:40:53.750Z,60.78
2023-02-05T16:43:26.471Z,60.26
2023-02-05T16:46:08.984Z,60.79
2023-02-05T16:48:48.074Z,60.40
2023-02-05T16:51:37.572Z,61.26
2023-02-05T16:54:10.581Z,61.41
2023-02-05T16:56:44.619Z,61.43
2023-02-05T16:59:23.919Z,62.61
2023-02-05T17:01:52.663Z,62.01
2023-02-05T17:04:26.886Z,61.08
2023-02-05T17:06:56.972Z,62.17
2023-02-05T17:09:36.334Z,62.25
2023-02-05T17:12:22.062Z,61.40
2023-02-05T17:15:00.474Z,62.13
2023-02-05T17:17:29.189Z,62.25
2023-02-05T17:20:15.416Z,62.05
2023-02-05T17:23:00.679Z,62.22
2023-02-05T17:25:29.288Z,62.10
2023-02-05T17:27:56.461Z,62.37
2023-02-05T17:30:23.452Z,62.58
2023-02-05T17:32:51.256Z,61.97
2023-02-05T17:35:22.224Z,62.00
2023-02-05T17:37:49.309Z,61.95
2023-02-05T17:40:16.464Z,62.27
2023-02-05T17:42:46.053Z,63.07
2023-02-05T17:45:32.953Z,62.49
2023-02-05T17:47:59.917Z,62.71
2023-02-05T17:50:27.405Z,63.57
2023-02-05T17:52:55.254Z,62.77
2023-02-05T17:55:23.203Z,62.85
2023-02-05T17:57:50.225Z,61.94
2023-02-05T18:00:22.096Z,61.87
2023-02-05T18:02:49.787Z,61.94
2023-02-05T18:05:17.179Z,61.66
2023-02-05T18:07:58.583Z,62.44
2023-02-05T18:10:33.369Z,62.92
2023-02-05T18:13:00.927Z,63.19
2023-02-05T18:15:32.112Z,63.08
2023-02-05T18:17:59.049Z,63.43
2023-02-05T18:20:26.006Z,63.04
2023-02-05T18:22:52.943Z,63.17
2023-02-05T18:25:19.952Z,63.53
2023-02-05T18:27:48.974Z,63.46
2023-02-05T18:30:16.184Z,63.55
2023-02-05T18:32:43.506Z,63.98
2023-02-05T18:35:14.504Z,64.48
2023-02-05T18:37:43.274Z,64.33
2023-02-05T18:40:11.279Z,64.46
2023-02-05T18:42:38.252Z,64.60
2023-02-05T18:45:05.445Z,64.97
2023-02-05T18:47:32.320Z,65.34
2023-02-05T18:49:59.335Z,65.41
2023-02-05T18:52:28.692Z,65.40
2023-02-05T18:54:55.586Z,65.74
2023-02-05T18:57:22.512Z,66.26
2023-02-05T18:59:49.821Z,66.29
2023-02-05T19:02:16.733Z,66.42
2023-02-05T19:04:45.642Z,66.67
2023-02-05T19:07:12.586Z,67.27
2023-02-05T19:09:39.496Z,66.96
2023-02-05T19:12:06.639Z,66.73
2023-02-05T19:14:33.528Z,66.82
2023-02-05T19:17:00.484Z,66.59
2023-02-05T19:19:27.709Z,67.69
2023-02-05T19:22:00.121Z,67.50
2023-02-05T19:24:27.359Z,67.93
2023-02-05T19:26:56.634Z,67.54
2023-02-05T19:29:23.841Z,67.42
2023-02-05T19:31:53.402Z,67.27
2023-02-05T19:34:22.247Z,67.90
2023-02-05T19:36:49.181Z,68.15
2023-02-05T19:39:16.343Z,68.56
2023-02-05T19:41:48.391Z,68.80
2023-02-05T19:44:15.468Z,68.61
2023-02-05T19:46:48.859Z,69.34
2023-02-05T19:49:19.165Z,68.83
2023-02-05T19:51:51.990Z,68.87
2023-02-05T19:54:21.616Z,69.65
2023-02-05T19:56:49.039Z,70.09
2023-02-05T19:59:16.918Z,69.98
2023-02-05T20:01:45.130Z,70.50
2023-02-05T20:04:17.041Z,70.45
2023-02-05T20:06:46.342Z,70.59
2023-02-05T20:09:14.512Z,71.80
2023-02-05T20:11:43.908Z,71.98
2023-02-05T20:14:11.668Z,70.79
2023-02-05T20:16:41.883Z,71.93
2023-02-05T20:19:11.758Z,71.48
2023-02-05T20:21:39.327Z,71.96
2023-02-05T20:24:07.611Z,73.09
2023-02-05T20:26:35.398Z,73.23
2023-02-05T20:29:20.627Z,73.78
2023-02-05T20:31:49.987Z,75.00
2023-02-05T20:34:18.728Z,75.07
2023-02-05T20:36:47.321Z,73.87
2023-02-05T20:39:14.534Z,75.62
2023-02-05T20:41:41.441Z,76.18
2023-02-05T20:44:08.368Z,76.01
2023-02-05T20:46:35.812Z,75.23
2023-02-05T20:49:03.600Z,75.80
2023-02-05T20:51:30.714Z,75.94
2023-02-05T20:53:58.836Z,76.13
2023-02-05T20:56:27.888Z,77.01
2023-02-05T20:58:55.027Z,77.04
2023-02-05T21:01:23.435Z,78.19
2023-02-05T21:03:52.960Z,78.71
2023-02-05T21:06:22.214Z,77.85
2023-02-05T21:08:52.924Z,77.98
2023-02-05T21:11:21.423Z,78.02
2023-02-05T21:13:50.178Z,78.83
2023-02-05T21:16:19.396Z,79.48
2023-02-05T21:18:47.986Z,79.61
2023-02-05T21:21:21.485Z,79.00
2023-02-05T21:23:49.180Z,79.02
2023-02-05T21:26:25.600Z,79.99
2023-02-05T21:28:56.982Z,80.10
2023-02-05T21:31:25.906Z,80.21
2023-02-05T21:33:52.820Z,81.14
2023-02-05T21:36:20.529Z,80.65
2023-02-05T21:38:47.501Z,80.92
2023-02-05T21:41:17.554Z,81.02
2023-02-05T21:43:49.586Z,81.02
2023-02-05T21:46:16.912Z,81.44
2023-02-05T21:48:48.326Z,82.29
2023-02-05T21:51:16.077Z,82.29
2023-02-05T21:53:43.736Z,83.14
2023-02-05T21:56:13.457Z,83.91
2023-02-05T21:58:41.443Z,83.11
2023-02-05T22:01:13.606Z,84.44
2023-02-05T22:03:42.338Z,84.60
2023-02-05T22:06:09.656Z,84.43
2023-02-05T22:08:38.012Z,84.91
2023-02-05T22:11:07.473Z,84.34
2023-02-05T22:13:36.766Z,84.82
2023-02-05T22:16:08.953Z,84.25
2023-02-05T22:18:37.128Z,83.45
2023-02-05T22:21:12.902Z,83.50
2023-02-05T22:23:41.094Z,83.12
2023-02-05T22:26:09.546Z,84.49
2023-02-05T22:28:37.315Z,84.25
2023-02-05T22:31:09.893Z,83.93
2023-02-05T22:33:38.509Z,85.32
2023-02-05T22:36:07.598Z,85.65
2023-02-05T22:38:37.128Z,85.66
2023-02-05T22:41:15.781Z,85.29
2023-02-05T22:43:42.883Z,86.28
2023-02-05T22:46:13.244Z,86.02
2023-02-05T22:48:42.642Z,85.75
2023-02-05T22:51:12.879Z,85.14
2023-02-05T22:53:40.298Z,85.42
2023-02-05T22:56:09.930Z,86.27
2023-02-05T22:58:42.218Z,85.84
2023-02-05T23:01:09.161Z,86.11
2023-02-05T23:03:37.235Z,86.82
2023-02-05T23:06:28.479Z,86.11
2023-02-05T23:09:01.340Z,86.16
2023-02-05T23:11:30.166Z,87.18
2023-02-05T23:13:59.243Z,85.75
2023-02-05T23:16:31.168Z,86.20
2023-02-05T23:19:00.828Z,86.40
2023-02-05T23:21:29.906Z,86.43
2023-02-05T23:23:57.291Z,86.18
2023-02-05T23:26:26.639Z,86.45
2023-02-05T23:28:55.053Z,86.32
2023-02-05T23:31:22.800Z,86.58
2023-02-05T23:33:50.238Z,87.22
2023-02-05T23:36:17.218Z,86.17
2023-02-05T23:38:44.835Z,86.69
2023-02-05T23:41:12.415Z,87.47
2023-02-05T23:43:40.104Z,87.42
2023-02-05T23:46:07.998Z,86.90
2023-02-05T23:48:35.259Z,86.77
2023-02-05T23:51:02.352Z,87.78
2023-02-05T23:53:29.318Z,87.29
2023-02-05T23:55:56.237Z,87.62
2023-02-05T23:58:26.012Z,87.90
